Terminal Aerodrome Forecast
Issued by NWS Cleveland, OH

Home | Current Version | Previous Version | Text Only | Print | Product List | Glossary On
Versions: 1 2 3 4 5 6 7 8 9 10 11 12 13 14 15 16 17 18 19 20 21 22 23 24 25 26 27
587
FTUS41 KCLE 122340
TAFCLE
TAF
KCLE 122340Z 1300/1406 28018G28KT 2SM -SHSN BLSN OVC018
      TEMPO 1300/1304 30012G22KT 5SM -SHSN BLSN OVC025
     FM130400 32015G22KT 6SM -SHSN BKN035
     FM131300 30015G25KT 3SM -SHSN OVC025
     FM132200 30010KT 6SM -SHSN OVC035=

USA.gov is the U.S. government's official web portal to all federal, state and local government web resources and services.